Estaciones Metar próximas

 

LELL - Sabadell, Spain
Distancia a la estación: E 18km
Actualizado: 05/12/2021 23:30
Despejado
Despejado
 Viento del O
Viento: O 9 km/h
Temperatura: 6°C
Sensación Térmica: 4°C
Rocío: -2°C
Humedad: 57%
Barómetro: 1013 hPa
Resumen: Despejado
Visibilidad: greater than 10 km
2021/12/05 22:30 LELL 052230Z AUTO 27005KT CAVOK 06/M02 Q1013
LEBL - Barcelona Airpor, Spain
Distancia a la estación: SSE 33km
Actualizado: 05/12/2021 23:30
Despejado
Despejado
 Viento del ONO
Viento: ONO 13 km/h
Temperatura: 9°C
Sensación Térmica: 7°C
Rocío: -2°C
Humedad: 46%
Barómetro: 1013 hPa
Resumen: Despejado
Visibilidad: greater than 10 km
2021/12/05 22:30 LEBL 052230Z 29007KT CAVOK 09/M02 Q1013 NOSIG
LERS - Reus (civ/Mil), Spain
Distancia a la estación: SO 75km
Actualizado: 05/12/2021 23:30
Despejado
Despejado
 Viento del O
Viento: O 24 km/h
Temperatura: 8°C
Sensación Térmica: 4°C
Rocío: 0°C
Humedad: 57%
Barómetro: 1015 hPa
Resumen: Despejado
Visibilidad: greater than 10 km
2021/12/05 22:30 LERS 052230Z AUTO 27013KT 240V310 CAVOK 08/00 Q1015
 
LEGE - Gerona/Costa Bra, Spain
Distancia a la estación: ENE 83km
Actualizado: 05/12/2021 23:30
Despejado
Despejado
 Viento del OSO
Viento: OSO 6 km/h
Temperatura: 2°C
Rocío: -4°C
Humedad: 65%
Barómetro: 1012 hPa
Resumen: Despejado
Visibilidad: greater than 10 km
2021/12/05 22:30 LEGE 052230Z 25003KT 190V320 CAVOK 02/M04 Q1012
LFMP - Perpignan/Rivesa, France
Distancia a la estación: NNE 155km
Actualizado: 05/12/2021 23:30
Lluvia débil, Muy nuboso
Lluvia débil, Muy nuboso
 Viento del ONO
Viento: ONO 48 km/h, Racha: 70 km/h
Temperatura: 8°C
Sensación Térmica: 3°C
Rocío: 2°C
Humedad: 66%
Barómetro: 1011 hPa
Resumen: Lluvia débil
Nubes: Muy nuboso
Visibilidad: 10 km
Detalle Nubes: Nubes dispersas 701 m
Muy nuboso 1006 m
Muy nuboso 1189 m
2021/12/05 22:30 LFMP 052230Z AUTO 30026G38KT 9999 -RA FEW023 BKN033 BKN039 08/02 Q1011
LFMK - Carcassonne/Salv, France
Distancia a la estación: N 191km
Actualizado: 05/12/2021 23:30
Tormenta
Tormenta
 Viento del O
Viento: O 37 km/h, Racha: 61 km/h
Temperatura: 6°C
Sensación Térmica: 1°C
Rocío: 4°C
Humedad: 87%
Barómetro: 1014 hPa
Nubes: Tormenta
Visibilidad: 10 km
Detalle Nubes: Nubes dispersas 366 m
Parcialmente nuboso 792 m
Muy nuboso 1524 m
2021/12/05 22:30 LFMK 052230Z AUTO 28020G33KT 9999 FEW012/// SCT026/// BKN050/// ///TCU 06/04 Q1014
 
LEHC - Huesca-Pirineos, Spain
Distancia a la estación: ONO 193km
Actualizado: 05/12/2021 23:30
Despejado
Despejado
 Viento del O
Viento: O 28 km/h
Temperatura: 2°C
Sensación Térmica: -3°C
Rocío: 0°C
Humedad: 87%
Barómetro: 1017 hPa
Resumen: Despejado
Visibilidad: greater than 10 km
2021/12/05 22:30 LEHC 052230Z AUTO 28015KT CAVOK 02/00 Q1017
LFMU - Beziers/Vias, France
Distancia a la estación: NNE 232km
Actualizado: 05/12/2021 23:30
Nubes dispersas
Nubes dispersas
 Viento del NO
Viento: NO 22 km/h
Temperatura: 7°C
Sensación Térmica: 4°C
Rocío: 1°C
Humedad: 66%
Barómetro: 1011 hPa
Nubes: Nubes dispersas
Visibilidad: 10 km
Detalle Nubes: Nubes dispersas 1463 m
2021/12/05 22:30 LFMU 052230Z AUTO 31012KT 9999 FEW048 07/01 Q1011
LEPA - Palma De Mallorc, Spain
Distancia a la estación: SSE 233km
Actualizado: 05/12/2021 23:30
Nubes dispersas
Nubes dispersas
 Viento del N
Viento: N 20 km/h
Temperatura: 11°C
Rocío: 3°C
Humedad: 58%
Barómetro: 1014 hPa
Nubes: Nubes dispersas
Visibilidad: 10 km
Detalle Nubes: Nubes dispersas 914 m
2021/12/05 22:30 LEPA 052230Z 36011KT 320V030 9999 FEW030 11/03 Q1014 NOSIG
 
LFBO - Toulouse/Blagnac, France
Distancia a la estación: N 236km
Actualizado: 05/12/2021 23:30
Tormenta
Tormenta
 Viento del O
Viento: O 28 km/h
Temperatura: 6°C
Sensación Térmica: 2°C
Rocío: 4°C
Humedad: 87%
Barómetro: 1016 hPa
Nubes: Tormenta
Visibilidad: 10 km
Detalle Nubes: Nubes dispersas 488 m
Muy nuboso 1097 m
Muy nuboso 1311 m
2021/12/05 22:30 LFBO 052230Z AUTO 28015KT 9999 FEW016/// BKN036/// BKN043/// ///TCU 06/04 Q1016 BECMG SCT020 BKN035
LFBT - Tarbes/Ossun, France
Distancia a la estación: NO 239km
Actualizado: 05/12/2021 23:30
Tormenta
Tormenta
 Viento del OSO
Viento: OSO 22 km/h
Temperatura: 5°C
Sensación Térmica: 1°C
Rocío: 3°C
Humedad: 87%
Barómetro: 1019 hPa
Nubes: Tormenta
Visibilidad: 10 km
Detalle Nubes: Parcialmente nuboso 823 m
Muy nuboso 1402 m
Muy nuboso 1707 m
2021/12/05 22:30 LFBT 052230Z AUTO 25012KT 9999 SCT027/// BKN046/// BKN056/// ///CB 05/03 Q1019 TEMPO 28015G30KT 3000 SHRA
LEZG - Zaragoza (mil/Ci, Spain
Distancia a la estación: O 242km
Actualizado: 05/12/2021 23:30
Nubes dispersas
Nubes dispersas
 Viento del ONO
Viento: ONO 24 km/h
Temperatura: 6°C
Sensación Térmica: 2°C
Rocío: 2°C
Humedad: 76%
Barómetro: 1020 hPa
Nubes: Nubes dispersas
Visibilidad: 10 km
Detalle Nubes: Nubes dispersas 1219 m
2021/12/05 22:30 LEZG 052230Z 30013KT 9999 FEW040 06/02 Q1020